Time,TemperatureF,DewpointF,PressureIn,WindDirection,WindDirectionDegrees,WindSpeedMPH,WindSpeedGustMPH,Humidity,HourlyPrecipIn,Conditions,Clouds,dailyrainin,SoftwareType,DateUTC
2013-11-28 00:10:00,35.2,29.0,30.22,NNW,336,3.0,7.0,77,0.00,,,0.00,weatherlink.com 1.10,2013-11-28 05:10:00,
2013-11-28 00:25:00,34.9,28.0,30.22,NNE,14,3.0,8.0,76,0.00,,,0.00,weatherlink.com 1.10,2013-11-28 05:25:00,
2013-11-28 00:41:00,34.4,28.0,30.23,NW,323,2.0,4.0,78,0.00,,,0.00,weatherlink.com 1.10,2013-11-28 05:41:00,
2013-11-28 00:56:00,33.9,28.0,30.23,NW,320,1.0,5.0,79,0.00,,,0.00,weatherlink.com 1.10,2013-11-28 05:56:00,
2013-11-28 01:11:00,33.6,28.0,30.24,NNW,348,1.0,3.0,80,0.00,,,0.00,weatherlink.com 1.10,2013-11-28 06:11:00,
2013-11-28 01:26:00,33.1,27.0,30.25,NW,324,1.0,4.0,79,0.00,,,0.00,weatherlink.com 1.10,2013-11-28 06:26:00,
2013-11-28 01:41:00,32.9,26.0,30.25,NNW,331,1.0,6.0,77,0.00,,,0.00,weatherlink.com 1.10,2013-11-28 06:41:00,
2013-11-28 01:56:00,32.7,26.0,30.26,NNW,336,4.0,7.0,76,0.00,,,0.00,weatherlink.com 1.10,2013-11-28 06:56:00,
2013-11-28 02:11:00,32.5,25.0,30.27,NNW,336,1.0,5.0,75,0.00,,,0.00,weatherlink.com 1.10,2013-11-28 07:11:00,
2013-11-28 02:26:00,32.4,26.0,30.27,NNW,341,1.0,5.0,76,0.00,,,0.00,weatherlink.com 1.10,2013-11-28 07:26:00,
2013-11-28 02:41:00,32.2,25.0,30.27,NW,320,2.0,7.0,76,0.00,,,0.00,weatherlink.com 1.10,2013-11-28 07:41:00,
2013-11-28 02:56:00,31.8,26.0,30.27,NW,324,3.0,9.0,78,0.00,,,0.00,weatherlink.com 1.10,2013-11-28 07:56:00,
2013-11-28 03:11:00,31.7,25.0,30.27,NNW,331,4.0,6.0,77,0.00,,,0.00,weatherlink.com 1.10,2013-11-28 08:11:00,
2013-11-28 03:26:00,31.6,25.0,30.27,NW,320,2.0,9.0,76,0.00,,,0.00,weatherlink.com 1.10,2013-11-28 08:26:00,
2013-11-28 03:41:00,31.5,24.0,30.28,NNW,346,6.0,10.0,75,0.00,,,0.00,weatherlink.com 1.10,2013-11-28 08:41:00,
2013-11-28 03:56:00,31.5,24.0,30.29,North,2,2.0,9.0,74,0.00,,,0.00,weatherlink.com 1.10,2013-11-28 08:56:00,
2013-11-28 04:26:00,31.2,23.0,30.30,NW,306,2.0,11.0,72,0.00,,,0.00,weatherlink.com 1.10,2013-11-28 09:26:00,
2013-11-28 04:41:00,30.9,23.0,30.31,NNW,330,4.0,8.0,73,0.00,,,0.00,weatherlink.com 1.10,2013-11-28 09:41:00,
2013-11-28 04:56:00,30.7,23.0,30.31,NNE,16,4.0,10.0,73,0.00,,,0.00,weatherlink.com 1.10,2013-11-28 09:56:00,
2013-11-28 05:11:00,30.5,23.0,30.32,ENE,68,6.0,9.0,73,0.00,,,0.00,weatherlink.com 1.10,2013-11-28 10:11:00,
2013-11-28 05:26:00,30.4,22.0,30.32,NNE,33,2.0,10.0,72,0.00,,,0.00,weatherlink.com 1.10,2013-11-28 10:26:00,
2013-11-28 05:41:00,30.4,22.0,30.33,NE,34,0.0,8.0,71,0.00,,,0.00,weatherlink.com 1.10,2013-11-28 10:41:00,
2013-11-28 05:56:00,30.6,22.0,30.35,NNW,336,6.0,10.0,69,0.00,,,0.00,weatherlink.com 1.10,2013-11-28 10:56:00,
2013-11-28 06:12:00,30.5,21.0,30.36,North,7,1.0,9.0,69,0.00,,,0.00,weatherlink.com 1.10,2013-11-28 11:12:00,
2013-11-28 06:27:00,30.3,21.0,30.36,NNW,336,5.0,9.0,69,0.00,,,0.00,weatherlink.com 1.10,2013-11-28 11:27:00,
2013-11-28 06:42:00,30.2,21.0,30.36,NW,317,5.0,10.0,69,0.00,,,0.00,weatherlink.com 1.10,2013-11-28 11:42:00,
2013-11-28 06:57:00,30.2,21.0,30.36,NNE,26,5.0,8.0,69,0.00,,,0.00,weatherlink.com 1.10,2013-11-28 11:57:00,
2013-11-28 07:12:00,30.3,21.0,30.37,NNW,336,3.0,12.0,68,0.00,,,0.00,weatherlink.com 1.10,2013-11-28 12:12:00,
2013-11-28 07:27:00,30.6,21.0,30.39,NNW,348,5.0,9.0,67,0.00,,,0.00,weatherlink.com 1.10,2013-11-28 12:27:00,
2013-11-28 07:42:00,30.8,21.0,30.39,NE,42,1.0,7.0,67,0.00,,,0.00,weatherlink.com 1.10,2013-11-28 12:42:00,
2013-11-28 07:57:00,31.4,21.0,30.40,NNW,334,5.0,10.0,65,0.00,,,0.00,weatherlink.com 1.10,2013-11-28 12:57:00,
2013-11-28 08:12:00,32.3,20.0,30.40,North,357,4.0,13.0,61,0.00,,,0.00,weatherlink.com 1.10,2013-11-28 13:12:00,
2013-11-28 08:27:00,33.2,21.0,30.41,NNE,27,9.0,9.0,61,0.00,,,0.00,weatherlink.com 1.10,2013-11-28 13:27:00,
2013-11-28 08:42:00,33.8,20.0,30.42,West,277,4.0,16.0,58,0.00,,,0.00,weatherlink.com 1.10,2013-11-28 13:42:00,
2013-11-28 08:57:00,34.4,20.0,30.42,North,355,13.0,14.0,56,0.00,,,0.00,weatherlink.com 1.10,2013-11-28 13:57:00,
2013-11-28 09:12:00,35.3,21.0,30.42,ENE,61,7.0,11.0,57,0.00,,,0.00,weatherlink.com 1.10,2013-11-28 14:12:00,
2013-11-28 09:27:00,35.9,21.0,30.43,NNE,18,4.0,10.0,54,0.00,,,0.00,weatherlink.com 1.10,2013-11-28 14:27:00,
2013-11-28 09:42:00,36.3,21.0,30.43,NE,44,7.0,14.0,54,0.00,,,0.00,weatherlink.com 1.10,2013-11-28 14:42:00,
2013-11-28 09:57:00,37.2,21.0,30.43,NE,56,2.0,11.0,53,0.00,,,0.00,weatherlink.com 1.10,2013-11-28 14:57:00,
2013-11-28 10:12:00,38.2,22.0,30.43,NNE,31,6.0,11.0,53,0.00,,,0.00,weatherlink.com 1.10,2013-11-28 15:12:00,
2013-11-28 10:27:00,38.2,22.0,30.44,NNW,336,4.0,11.0,52,0.00,,,0.00,weatherlink.com 1.10,2013-11-28 15:27:00,
2013-11-28 10:42:00,39.3,21.0,30.44,East,86,4.0,11.0,49,0.00,,,0.00,weatherlink.com 1.10,2013-11-28 15:42:00,
2013-11-28 10:57:00,39.4,22.0,30.43,NNE,27,4.0,9.0,49,0.00,,,0.00,weatherlink.com 1.10,2013-11-28 15:57:00,
2013-11-28 11:12:00,39.9,21.0,30.43,ESE,106,3.0,8.0,48,0.00,,,0.00,weatherlink.com 1.10,2013-11-28 16:12:00,
2013-11-28 11:27:00,40.4,23.0,30.43,NW,326,6.0,9.0,51,0.00,,,0.00,weatherlink.com 1.10,2013-11-28 16:27:00,
2013-11-28 11:42:00,41.5,23.0,30.43,NE,42,4.0,9.0,49,0.00,,,0.00,weatherlink.com 1.10,2013-11-28 16:42:00,
2013-11-28 11:57:00,41.9,23.0,30.42,North,5,3.0,7.0,47,0.00,,,0.00,weatherlink.com 1.10,2013-11-28 16:57:00,
2013-11-28 12:12:00,42.1,24.0,30.42,NW,309,3.0,7.0,49,0.00,,,0.00,weatherlink.com 1.10,2013-11-28 17:12:00,
2013-11-28 12:27:00,42.3,24.0,30.41,NNW,340,3.0,8.0,49,0.00,,,0.00,weatherlink.com 1.10,2013-11-28 17:27:00,
2013-11-28 12:43:00,43.4,25.0,30.42,ESE,102,3.0,4.0,48,0.00,,,0.00,weatherlink.com 1.10,2013-11-28 17:43:00,
2013-11-28 12:58:00,43.2,24.0,30.41,NNE,33,6.0,7.0,47,0.00,,,0.00,weatherlink.com 1.10,2013-11-28 17:58:00,
2013-11-28 13:13:00,44.0,24.0,30.41,ESE,108,1.0,5.0,46,0.00,,,0.00,weatherlink.com 1.10,2013-11-28 18:13:00,
2013-11-28 13:28:00,44.3,25.0,30.41,East,94,1.0,3.0,47,0.00,,,0.00,weatherlink.com 1.10,2013-11-28 18:28:00,
2013-11-28 13:43:00,44.7,24.0,30.41,ESE,106,1.0,5.0,45,0.00,,,0.00,weatherlink.com 1.10,2013-11-28 18:43:00,
2013-11-28 13:58:00,45.3,24.0,30.40,NNW,332,1.0,4.0,44,0.00,,,0.00,weatherlink.com 1.10,2013-11-28 18:58:00,
2013-11-28 14:13:00,44.4,25.0,30.41,East,85,1.0,6.0,47,0.00,,,0.00,weatherlink.com 1.10,2013-11-28 19:13:00,
2013-11-28 14:28:00,45.2,25.0,30.41,SE,144,0.0,7.0,45,0.00,,,0.00,weatherlink.com 1.10,2013-11-28 19:28:00,
2013-11-28 14:43:00,46.2,25.0,30.41,SSE,147,0.0,2.0,43,0.00,,,0.00,weatherlink.com 1.10,2013-11-28 19:43:00,
2013-11-28 14:58:00,45.8,25.0,30.41,NW,326,2.0,5.0,45,0.00,,,0.00,weatherlink.com 1.10,2013-11-28 19:58:00,
2013-11-28 15:13:00,44.9,25.0,30.42,NE,49,3.0,5.0,45,0.00,,,0.00,weatherlink.com 1.10,2013-11-28 20:13:00,
2013-11-28 15:28:00,44.7,24.0,30.42,SSE,152,0.0,2.0,45,0.00,,,0.00,weatherlink.com 1.10,2013-11-28 20:28:00,
2013-11-28 15:43:00,44.6,24.0,30.43,ESE,104,0.0,3.0,44,0.00,,,0.00,weatherlink.com 1.10,2013-11-28 20:43:00,
2013-11-28 15:58:00,44.4,25.0,30.43,ESE,108,0.0,1.0,46,0.00,,,0.00,weatherlink.com 1.10,2013-11-28 20:58:00,
2013-11-28 16:13:00,44.4,25.0,30.43,SE,127,0.0,2.0,46,0.00,,,0.00,weatherlink.com 1.10,2013-11-28 21:13:00,
2013-11-28 16:28:00,43.6,29.0,30.43,SE,125,0.0,3.0,56,0.00,,,0.00,weatherlink.com 1.10,2013-11-28 21:28:00,
2013-11-28 16:43:00,42.8,29.0,30.44,SE,126,0.0,3.0,58,0.00,,,0.00,weatherlink.com 1.10,2013-11-28 21:43:00,
2013-11-28 16:58:00,42.0,29.0,30.44,SE,143,0.0,1.0,61,0.00,,,0.00,weatherlink.com 1.10,2013-11-28 21:58:00,
2013-11-28 17:13:00,40.7,30.0,30.45,SE,143,0.0,0.0,65,0.00,,,0.00,weatherlink.com 1.10,2013-11-28 22:13:00,
2013-11-28 17:28:00,39.4,31.0,30.45,SE,143,0.0,0.0,71,0.00,,,0.00,weatherlink.com 1.10,2013-11-28 22:28:00,
2013-11-28 17:43:00,38.0,30.0,30.46,SE,143,0.0,0.0,74,0.00,,,0.00,weatherlink.com 1.10,2013-11-28 22:43:00,
2013-11-28 17:58:00,36.1,30.0,30.46,SE,143,0.0,0.0,77,0.00,,,0.00,weatherlink.com 1.10,2013-11-28 22:58:00,
2013-11-28 18:13:00,35.8,31.0,30.47,SE,144,0.0,0.0,81,0.00,,,0.00,weatherlink.com 1.10,2013-11-28 23:13:00,
2013-11-28 18:28:00,34.8,30.0,30.47,SE,143,0.0,0.0,83,0.00,,,0.00,weatherlink.com 1.10,2013-11-28 23:28:00,
2013-11-28 18:43:00,35.2,31.0,30.48,SE,144,0.0,0.0,84,0.00,,,0.00,weatherlink.com 1.10,2013-11-28 23:43:00,
2013-11-28 18:58:00,34.8,31.0,30.49,SE,144,0.0,0.0,85,0.00,,,0.00,weatherlink.com 1.10,2013-11-28 23:58:00,
2013-11-28 19:13:00,34.0,31.0,30.49,SE,143,0.0,0.0,87,0.00,,,0.00,weatherlink.com 1.10,2013-11-29 00:13:00,
2013-11-28 19:28:00,33.6,30.0,30.50,SE,144,0.0,0.0,87,0.00,,,0.00,weatherlink.com 1.10,2013-11-29 00:28:00,
2013-11-28 19:43:00,33.1,30.0,30.50,SE,143,0.0,0.0,89,0.00,,,0.00,weatherlink.com 1.10,2013-11-29 00:43:00,
2013-11-28 19:58:00,32.9,30.0,30.50,SE,143,0.0,0.0,90,0.00,,,0.00,weatherlink.com 1.10,2013-11-29 00:58:00,
2013-11-28 20:13:00,32.7,30.0,30.50,SE,143,0.0,0.0,91,0.00,,,0.00,weatherlink.com 1.10,2013-11-29 01:13:00,
2013-11-28 20:28:00,32.2,30.0,30.50,SE,143,0.0,0.0,91,0.00,,,0.00,weatherlink.com 1.10,2013-11-29 01:28:00,
2013-11-28 20:43:00,32.3,30.0,30.50,SE,143,0.0,0.0,92,0.00,,,0.00,weatherlink.com 1.10,2013-11-29 01:43:00,
2013-11-28 20:58:00,32.1,30.0,30.50,SE,143,0.0,0.0,93,0.00,,,0.00,weatherlink.com 1.10,2013-11-29 01:58:00,
2013-11-28 21:13:00,32.0,30.0,30.50,SE,143,0.0,0.0,93,0.00,,,0.00,weatherlink.com 1.10,2013-11-29 02:13:00,
2013-11-28 21:28:00,32.0,30.0,30.50,SE,144,0.0,0.0,93,0.00,,,0.00,weatherlink.com 1.10,2013-11-29 02:28:00,
2013-11-28 21:43:00,31.6,30.0,30.50,SE,144,0.0,0.0,93,0.00,,,0.00,weatherlink.com 1.10,2013-11-29 02:43:00,
2013-11-28 21:58:00,31.7,30.0,30.50,SE,143,0.0,0.0,94,0.00,,,0.00,weatherlink.com 1.10,2013-11-29 02:58:00,
2013-11-28 22:13:00,31.8,30.0,30.49,SE,143,0.0,0.0,94,0.00,,,0.00,weatherlink.com 1.10,2013-11-29 03:13:00,
2013-11-28 22:28:00,31.7,30.0,30.50,SE,144,0.0,0.0,94,0.00,,,0.00,weatherlink.com 1.10,2013-11-29 03:28:00,
2013-11-28 22:43:00,31.7,30.0,30.50,SE,144,0.0,0.0,94,0.00,,,0.00,weatherlink.com 1.10,2013-11-29 03:43:00,
2013-11-28 22:58:00,32.0,31.0,30.50,SE,144,0.0,0.0,95,0.00,,,0.00,weatherlink.com 1.10,2013-11-29 03:58:00,
2013-11-28 23:13:00,31.9,31.0,30.50,SE,143,0.0,0.0,95,0.00,,,0.00,weatherlink.com 1.10,2013-11-29 04:13:00,
2013-11-28 23:28:00,32.2,31.0,30.50,SE,144,0.0,0.0,95,0.00,,,0.00,weatherlink.com 1.10,2013-11-29 04:28:00,
2013-11-28 23:44:00,32.4,31.0,30.50,SE,144,0.0,0.0,95,0.00,,,0.00,weatherlink.com 1.10,2013-11-29 04:44:00,
2013-11-28 23:59:00,32.4,31.0,30.50,SE,143,0.0,0.0,95,0.00,,,0.00,weatherlink.com 1.10,2013-11-29 04:59:00,